createdAt,value
2022-08-30T00:01:03.122Z,100.00
2022-08-30T00:03:34.968Z,100.00
2022-08-30T00:06:01.720Z,100.00
2022-08-30T00:08:28.599Z,100.00
2022-08-30T00:10:55.492Z,100.00
2022-08-30T00:13:23.404Z,100.00
2022-08-30T00:15:50.654Z,100.00
2022-08-30T00:18:18.776Z,100.00
2022-08-30T00:20:47.091Z,100.00
2022-08-30T00:23:14.137Z,100.00
2022-08-30T00:25:41.294Z,100.00
2022-08-30T00:28:08.032Z,100.00
2022-08-30T00:30:34.684Z,100.00
2022-08-30T00:33:01.626Z,100.00
2022-08-30T00:35:28.810Z,100.00
2022-08-30T00:37:55.469Z,100.00
2022-08-30T00:40:27.334Z,100.00
2022-08-30T00:42:58.813Z,100.00
2022-08-30T00:45:32.398Z,100.00
2022-08-30T00:47:59.831Z,100.00
2022-08-30T00:50:31.766Z,100.00
2022-08-30T00:53:04.558Z,100.00
2022-08-30T00:55:31.340Z,100.00
2022-08-30T00:58:00.823Z,100.00
2022-08-30T01:00:29.403Z,100.00
2022-08-30T01:02:56.277Z,100.00
2022-08-30T01:05:23.959Z,100.00
2022-08-30T01:07:51.230Z,100.00
2022-08-30T01:10:18.017Z,100.00
2022-08-30T01:12:45.164Z,100.00
2022-08-30T01:15:14.546Z,100.00
2022-08-30T01:17:45.325Z,100.00
2022-08-30T01:20:15.982Z,100.00
2022-08-30T01:22:49.518Z,100.00
2022-08-30T01:25:22.908Z,100.00
2022-08-30T01:27:52.627Z,100.00
2022-08-30T01:30:19.648Z,100.00
2022-08-30T01:32:47.961Z,100.00
2022-08-30T01:35:17.052Z,100.00
2022-08-30T01:37:44.697Z,100.00
2022-08-30T01:40:13.238Z,100.00
2022-08-30T01:42:39.969Z,100.00
2022-08-30T01:45:08.484Z,100.00
2022-08-30T01:47:35.461Z,100.00
2022-08-30T01:50:02.114Z,100.00
2022-08-30T01:52:28.795Z,100.00
2022-08-30T01:54:55.419Z,100.00
2022-08-30T01:57:23.836Z,100.00
2022-08-30T01:59:50.590Z,100.00
2022-08-30T02:02:20.632Z,100.00
2022-08-30T02:04:47.371Z,100.00
2022-08-30T02:07:14.043Z,100.00
2022-08-30T02:09:44.215Z,100.00
2022-08-30T02:12:12.999Z,100.00
2022-08-30T02:14:40.021Z,100.00
2022-08-30T02:17:08.865Z,100.00
2022-08-30T02:19:35.746Z,100.00
2022-08-30T02:22:02.797Z,100.00
2022-08-30T02:24:29.447Z,100.00
2022-08-30T02:26:56.195Z,100.00
2022-08-30T02:29:23.910Z,100.00
2022-08-30T02:31:50.731Z,100.00
2022-08-30T02:34:17.845Z,100.00
2022-08-30T02:36:45.385Z,100.00
2022-08-30T02:39:13.456Z,100.00
2022-08-30T02:41:40.804Z,100.00
2022-08-30T02:44:07.987Z,100.00
2022-08-30T02:46:34.875Z,100.00
2022-08-30T02:49:13.198Z,100.00
2022-08-30T02:51:49.087Z,100.00
2022-08-30T02:54:19.865Z,100.00
2022-08-30T02:56:47.943Z,100.00
2022-08-30T02:59:16.142Z,100.00
2022-08-30T03:01:42.969Z,100.00
2022-08-30T03:04:09.929Z,100.00
2022-08-30T03:06:36.797Z,100.00
2022-08-30T03:09:03.924Z,100.00
2022-08-30T03:11:30.839Z,100.00
2022-08-30T03:13:57.520Z,100.00
2022-08-30T03:16:24.327Z,100.00
2022-08-30T03:18:50.975Z,100.00
2022-08-30T03:21:17.964Z,100.00
2022-08-30T03:23:44.878Z,100.00
2022-08-30T03:26:14.843Z,100.00
2022-08-30T03:28:42.901Z,100.00
2022-08-30T03:31:10.065Z,100.00
2022-08-30T03:33:37.106Z,100.00
2022-08-30T03:36:06.373Z,100.00
2022-08-30T03:38:33.334Z,100.00
2022-08-30T03:41:00.158Z,100.00
2022-08-30T03:43:27.038Z,100.00
2022-08-30T03:45:53.833Z,100.00
2022-08-30T03:48:20.631Z,100.00
2022-08-30T03:50:47.287Z,100.00
2022-08-30T03:53:14.006Z,100.00
2022-08-30T03:55:40.725Z,100.00
2022-08-30T03:58:12.783Z,100.00
2022-08-30T04:00:45.739Z,100.00
2022-08-30T04:03:12.433Z,100.00
2022-08-30T04:05:39.345Z,100.00
2022-08-30T04:08:06.358Z,100.00
2022-08-30T04:10:33.059Z,100.00
2022-08-30T04:12:59.722Z,100.00
2022-08-30T04:15:26.367Z,100.00
2022-08-30T04:17:54.969Z,100.00
2022-08-30T04:20:21.620Z,100.00
2022-08-30T04:22:48.253Z,100.00
2022-08-30T04:25:15.913Z,100.00
2022-08-30T04:27:44.012Z,100.00
2022-08-30T04:30:12.204Z,100.00
2022-08-30T04:32:40.271Z,100.00
2022-08-30T04:35:07.262Z,100.00
2022-08-30T04:37:33.960Z,100.00
2022-08-30T04:40:00.836Z,100.00
2022-08-30T04:42:31.911Z,100.00
2022-08-30T04:45:00.230Z,100.00
2022-08-30T04:47:27.045Z,100.00
2022-08-30T04:49:54.109Z,100.00
2022-08-30T04:52:20.775Z,100.00
2022-08-30T04:54:47.442Z,100.00
2022-08-30T04:57:14.185Z,100.00
2022-08-30T04:59:40.827Z,100.00
2022-08-30T05:02:07.645Z,100.00
2022-08-30T05:04:34.316Z,100.00
2022-08-30T05:07:01.278Z,100.00
2022-08-30T05:09:27.998Z,100.00
2022-08-30T05:11:55.059Z,100.00
2022-08-30T05:14:21.727Z,100.00
2022-08-30T05:16:48.442Z,100.00
2022-08-30T05:19:15.146Z,100.00
2022-08-30T05:21:41.889Z,100.00
2022-08-30T05:24:08.609Z,100.00
2022-08-30T05:26:37.923Z,100.00
2022-08-30T05:29:04.771Z,100.00
2022-08-30T05:31:34.237Z,100.00
2022-08-30T05:34:01.801Z,100.00
2022-08-30T05:36:29.884Z,100.00
2022-08-30T05:38:56.767Z,100.00
2022-08-30T05:41:26.539Z,100.00
2022-08-30T05:43:55.586Z,100.00
2022-08-30T05:46:22.661Z,100.00
2022-08-30T05:48:50.194Z,100.00
2022-08-30T05:51:19.496Z,100.00
2022-08-30T05:53:46.858Z,100.00
2022-08-30T05:56:15.852Z,100.00
2022-08-30T05:58:43.443Z,100.00
2022-08-30T06:01:26.585Z,100.00
2022-08-30T06:03:56.930Z,100.00
2022-08-30T06:06:25.034Z,100.00
2022-08-30T06:08:52.947Z,100.00
2022-08-30T06:11:22.409Z,100.00
2022-08-30T06:13:49.882Z,100.00
2022-08-30T06:16:18.612Z,100.00
2022-08-30T06:18:45.926Z,100.00
2022-08-30T06:21:20.706Z,100.00
2022-08-30T06:23:47.541Z,100.00
2022-08-30T06:26:14.348Z,100.00
2022-08-30T06:28:40.986Z,100.00
2022-08-30T06:31:08.980Z,100.00
2022-08-30T06:33:36.411Z,100.00
2022-08-30T06:36:15.916Z,100.00
2022-08-30T06:38:42.576Z,100.00
2022-08-30T06:41:12.484Z,100.00
2022-08-30T06:43:39.137Z,100.00
2022-08-30T06:46:09.759Z,100.00
2022-08-30T06:48:36.465Z,100.00
2022-08-30T06:51:03.676Z,100.00
2022-08-30T06:53:30.886Z,100.00
2022-08-30T06:56:00.922Z,100.00
2022-08-30T06:58:28.810Z,100.00
2022-08-30T07:00:55.587Z,100.00
2022-08-30T07:03:22.334Z,100.00
2022-08-30T07:05:49.591Z,100.00
2022-08-30T07:08:17.896Z,100.00
2022-08-30T07:10:45.442Z,100.00
2022-08-30T07:13:12.721Z,100.00
2022-08-30T07:15:43.149Z,100.00
2022-08-30T07:18:31.897Z,100.00
2022-08-30T07:20:59.483Z,100.00
2022-08-30T07:23:26.130Z,100.00
2022-08-30T07:25:52.751Z,100.00
2022-08-30T07:28:19.474Z,100.00
2022-08-30T07:30:46.132Z,100.00
2022-08-30T07:33:12.990Z,100.00
2022-08-30T07:35:39.758Z,100.00
2022-08-30T07:38:06.429Z,100.00
2022-08-30T07:40:33.132Z,100.00
2022-08-30T07:43:02.202Z,100.00
2022-08-30T07:45:28.828Z,100.00
2022-08-30T07:47:55.429Z,100.00
2022-08-30T07:50:22.406Z,100.00
2022-08-30T07:52:49.009Z,100.00
2022-08-30T07:55:16.458Z,100.00
2022-08-30T07:57:43.291Z,100.00
2022-08-30T08:00:10.388Z,100.00
2022-08-30T08:02:37.350Z,100.00
2022-08-30T08:05:05.326Z,100.00
2022-08-30T08:07:32.285Z,100.00
2022-08-30T08:09:58.875Z,100.00
2022-08-30T08:12:25.648Z,100.00
2022-08-30T08:14:52.790Z,100.00
2022-08-30T08:17:19.474Z,100.00
2022-08-30T08:19:46.109Z,100.00
2022-08-30T08:22:20.873Z,100.00
2022-08-30T08:24:48.585Z,100.00
2022-08-30T08:27:15.390Z,100.00
2022-08-30T08:29:42.238Z,100.00
2022-08-30T08:32:08.886Z,100.00
2022-08-30T08:34:35.931Z,100.00
2022-08-30T08:37:02.683Z,100.00
2022-08-30T08:39:29.291Z,100.00
2022-08-30T08:42:17.022Z,100.00
2022-08-30T08:45:11.565Z,100.00
2022-08-30T08:47:42.212Z,100.00
2022-08-30T08:50:17.458Z,100.00
2022-08-30T08:53:20.560Z,100.00
2022-08-30T08:55:57.820Z,100.00
2022-08-30T08:58:29.301Z,100.00
2022-08-30T09:00:57.507Z,100.00
2022-08-30T09:03:26.423Z,100.00
2022-08-30T09:05:53.981Z,100.00
2022-08-30T09:08:21.868Z,100.00
2022-08-30T09:11:03.561Z,100.00
2022-08-30T09:13:30.193Z,100.00
2022-08-30T09:15:59.572Z,100.00
2022-08-30T09:18:54.857Z,94.86
2022-08-30T09:21:25.057Z,97.68
2022-08-30T09:23:57.457Z,98.00
2022-08-30T09:26:37.741Z,99.46
2022-08-30T09:29:05.843Z,90.10
2022-08-30T09:31:46.734Z,96.43
2022-08-30T09:34:19.077Z,100.00
2022-08-30T09:36:53.667Z,100.00
2022-08-30T09:39:27.938Z,100.00
2022-08-30T09:41:55.090Z,100.00
2022-08-30T09:44:24.595Z,100.00
2022-08-30T09:46:59.481Z,100.00
2022-08-30T09:49:30.566Z,100.00
2022-08-30T09:52:17.037Z,100.00
2022-08-30T09:55:23.776Z,100.00
2022-08-30T09:57:57.994Z,100.00
2022-08-30T10:00:31.391Z,95.65
2022-08-30T10:03:34.814Z,95.08
2022-08-30T10:06:14.362Z,96.68
2022-08-30T10:09:21.058Z,98.82
2022-08-30T10:12:06.288Z,97.40
2022-08-30T10:14:35.798Z,100.00
2022-08-30T10:17:09.199Z,100.00
2022-08-30T10:19:49.763Z,100.00
2022-08-30T10:22:19.745Z,100.00
2022-08-30T10:25:01.215Z,100.00
2022-08-30T10:27:36.887Z,100.00
2022-08-30T10:30:13.835Z,100.00
2022-08-30T10:33:03.853Z,100.00
2022-08-30T10:35:38.607Z,100.00
2022-08-30T10:38:37.372Z,100.00
2022-08-30T10:41:19.299Z,100.00
2022-08-30T10:43:58.882Z,100.00
2022-08-30T10:46:48.375Z,100.00
2022-08-30T10:49:28.920Z,100.00
2022-08-30T10:52:12.447Z,100.00
2022-08-30T10:54:48.510Z,100.00
2022-08-30T10:57:15.156Z,100.00
2022-08-30T10:59:46.666Z,100.00
2022-08-30T11:02:39.600Z,97.03
2022-08-30T11:05:17.550Z,100.00
2022-08-30T11:08:08.335Z,100.00
2022-08-30T11:11:32.839Z,100.00
2022-08-30T11:14:05.714Z,98.38
2022-08-30T11:16:39.933Z,96.46
2022-08-30T11:19:13.867Z,97.37
2022-08-30T11:21:42.270Z,100.00
2022-08-30T11:24:29.106Z,94.90
2022-08-30T11:26:59.166Z,99.20
2022-08-30T11:29:34.538Z,100.00
2022-08-30T11:32:13.471Z,100.00
2022-08-30T11:34:49.384Z,100.00
2022-08-30T11:37:42.956Z,100.00
2022-08-30T11:40:20.089Z,100.00
2022-08-30T11:42:49.438Z,100.00
2022-08-30T11:45:22.279Z,100.00
2022-08-30T11:47:59.875Z,100.00
2022-08-30T11:50:52.656Z,100.00
2022-08-30T11:53:30.783Z,100.00
2022-08-30T11:56:21.324Z,100.00
2022-08-30T11:58:55.683Z,100.00
2022-08-30T12:01:46.912Z,100.00
2022-08-30T12:04:21.491Z,100.00
2022-08-30T12:07:05.547Z,100.00
2022-08-30T12:09:35.259Z,100.00
2022-08-30T12:12:10.827Z,100.00
2022-08-30T12:18:03.515Z,93.68
2022-08-30T12:20:43.326Z,95.54
2022-08-30T12:23:23.354Z,92.97
2022-08-30T12:25:50.952Z,88.90
2022-08-30T12:28:24.138Z,87.12
2022-08-30T12:30:51.781Z,91.46
2022-08-30T12:33:39.520Z,86.64
2022-08-30T12:36:31.996Z,86.76
2022-08-30T12:39:23.940Z,83.75
2022-08-30T12:41:50.606Z,85.88
2022-08-30T12:44:25.927Z,85.16
2022-08-30T12:47:01.202Z,86.21
2022-08-30T12:49:33.118Z,85.14
2022-08-30T12:52:26.747Z,87.56
2022-08-30T12:54:54.953Z,85.58
2022-08-30T12:58:09.460Z,85.78
2022-08-30T13:00:42.705Z,86.91
2022-08-30T13:03:36.627Z,89.59
2022-08-30T13:06:07.385Z,86.54
2022-08-30T13:08:45.654Z,83.64
2022-08-30T13:11:24.969Z,84.90
2022-08-30T13:13:58.342Z,81.92
2022-08-30T13:16:36.388Z,84.89
2022-08-30T13:19:27.460Z,82.16
2022-08-30T13:21:55.994Z,81.90
2022-08-30T13:24:25.520Z,81.93
2022-08-30T13:26:57.859Z,84.51
2022-08-30T13:29:28.282Z,82.20
2022-08-30T13:31:55.798Z,80.87
2022-08-30T13:34:23.500Z,82.56
2022-08-30T13:36:54.011Z,82.33
2022-08-30T13:39:21.846Z,82.51
2022-08-30T13:41:49.827Z,84.54
2022-08-30T13:44:18.567Z,85.69
2022-08-30T13:46:54.000Z,75.85
2022-08-30T13:52:22.323Z,80.27
2022-08-30T13:54:51.884Z,76.75
2022-08-30T14:00:12.863Z,81.59
2022-08-30T14:02:46.375Z,77.30
2022-08-30T14:05:37.624Z,76.80
2022-08-30T14:08:03.158Z,75.84
2022-08-30T14:10:31.681Z,73.61
2022-08-30T14:13:07.820Z,73.49
2022-08-30T14:15:38.754Z,73.49
2022-08-30T14:18:06.293Z,73.42
2022-08-30T14:20:33.320Z,75.43
2022-08-30T14:23:00.024Z,74.09
2022-08-30T14:25:28.738Z,73.30
2022-08-30T14:27:56.286Z,75.01
2022-08-30T14:30:23.562Z,79.37
2022-08-30T14:32:50.243Z,76.62
2022-08-30T14:35:19.342Z,78.25
2022-08-30T14:37:49.741Z,81.90
2022-08-30T14:40:17.363Z,80.37
2022-08-30T14:42:44.554Z,85.27
2022-08-30T14:45:11.767Z,85.05
2022-08-30T14:47:38.843Z,87.13
2022-08-30T14:50:06.462Z,83.17
2022-08-30T14:52:33.790Z,85.39
2022-08-30T14:55:08.609Z,87.00
2022-08-30T14:57:36.379Z,85.38
2022-08-30T15:00:10.770Z,86.68
2022-08-30T15:02:37.874Z,83.73
2022-08-30T15:05:06.930Z,83.94
2022-08-30T15:07:35.613Z,86.41
2022-08-30T15:10:03.221Z,83.12
2022-08-30T15:12:29.869Z,81.87
2022-08-30T15:14:56.468Z,82.98
2022-08-30T15:17:23.145Z,80.92
2022-08-30T15:19:49.793Z,81.68
2022-08-30T15:22:17.042Z,79.07
2022-08-30T15:24:44.119Z,76.96
2022-08-30T15:27:15.899Z,77.25
2022-08-30T15:29:42.605Z,79.42
2022-08-30T15:32:09.266Z,80.58
2022-08-30T15:34:36.029Z,80.58
2022-08-30T15:37:02.912Z,81.09
2022-08-30T15:39:31.270Z,81.62
2022-08-30T15:42:00.947Z,78.45
2022-08-30T15:44:29.962Z,80.20
2022-08-30T15:46:56.872Z,79.37
2022-08-30T15:49:24.233Z,83.90
2022-08-30T15:51:53.133Z,79.58
2022-08-30T15:54:23.344Z,82.36
2022-08-30T15:56:50.181Z,83.20
2022-08-30T15:59:17.646Z,85.00
2022-08-30T16:01:45.421Z,83.14
2022-08-30T16:04:14.635Z,74.09
2022-08-30T16:06:41.802Z,78.93
2022-08-30T16:09:09.894Z,84.66
2022-08-30T16:11:37.414Z,87.18
2022-08-30T16:14:05.555Z,83.11
2022-08-30T16:16:32.577Z,86.81
2022-08-30T16:18:59.520Z,86.58
2022-08-30T16:21:31.339Z,84.65
2022-08-30T16:24:01.504Z,88.54
2022-08-30T16:26:30.007Z,90.25
2022-08-30T16:28:57.003Z,90.91
2022-08-30T16:31:24.731Z,88.72
2022-08-30T16:33:53.114Z,86.50
2022-08-30T16:36:22.666Z,86.70
2022-08-30T16:38:49.782Z,88.48
2022-08-30T16:41:22.322Z,92.35
2022-08-30T16:43:53.487Z,92.69
2022-08-30T16:46:23.233Z,90.78
2022-08-30T16:48:53.617Z,90.05
2022-08-30T16:51:22.746Z,93.46
2022-08-30T16:53:49.501Z,90.63
2022-08-30T16:56:19.077Z,93.64
2022-08-30T16:58:46.701Z,96.49
2022-08-30T17:01:14.168Z,98.34
2022-08-30T17:03:41.342Z,95.42
2022-08-30T17:06:08.306Z,96.92
2022-08-30T17:08:35.044Z,98.97
2022-08-30T17:11:01.721Z,97.06
2022-08-30T17:13:28.676Z,100.00
2022-08-30T17:15:56.732Z,100.00
2022-08-30T17:18:23.938Z,100.00
2022-08-30T17:20:50.646Z,100.00
2022-08-30T17:23:17.891Z,100.00
2022-08-30T17:25:47.408Z,100.00
2022-08-30T17:28:14.019Z,100.00
2022-08-30T17:30:40.654Z,100.00
2022-08-30T17:33:08.270Z,100.00
2022-08-30T17:35:35.050Z,100.00
2022-08-30T17:38:01.670Z,100.00
2022-08-30T17:40:28.370Z,100.00
2022-08-30T17:42:55.255Z,100.00
2022-08-30T17:45:21.974Z,100.00
2022-08-30T17:47:48.783Z,100.00
2022-08-30T17:50:16.314Z,100.00
2022-08-30T17:52:46.354Z,100.00
2022-08-30T17:55:13.634Z,100.00
2022-08-30T17:57:41.960Z,100.00
2022-08-30T18:00:11.424Z,100.00
2022-08-30T18:02:42.668Z,100.00
2022-08-30T18:05:10.572Z,100.00
2022-08-30T18:07:37.401Z,100.00
2022-08-30T18:10:04.988Z,100.00
2022-08-30T18:12:31.684Z,100.00
2022-08-30T18:15:00.674Z,100.00
2022-08-30T18:17:28.394Z,100.00
2022-08-30T18:19:55.082Z,100.00
2022-08-30T18:22:24.407Z,100.00
2022-08-30T18:24:51.347Z,100.00
2022-08-30T18:27:18.102Z,100.00
2022-08-30T18:29:44.760Z,100.00
2022-08-30T18:32:11.606Z,100.00
2022-08-30T18:34:40.337Z,100.00
2022-08-30T18:37:11.280Z,100.00
2022-08-30T18:39:38.327Z,100.00
2022-08-30T18:42:06.365Z,100.00
2022-08-30T18:44:33.926Z,100.00
2022-08-30T18:47:03.655Z,100.00
2022-08-30T18:49:32.160Z,100.00
2022-08-30T18:52:00.542Z,100.00
2022-08-30T18:54:27.646Z,100.00
2022-08-30T18:56:54.406Z,100.00
2022-08-30T18:59:21.467Z,100.00
2022-08-30T19:01:49.697Z,100.00
2022-08-30T19:04:29.557Z,100.00
2022-08-30T19:07:02.309Z,100.00
2022-08-30T19:09:28.970Z,100.00
2022-08-30T19:11:55.665Z,100.00
2022-08-30T19:14:22.345Z,100.00
2022-08-30T19:16:48.987Z,100.00
2022-08-30T19:19:16.107Z,100.00
2022-08-30T19:21:42.902Z,100.00
2022-08-30T19:24:09.918Z,100.00
2022-08-30T19:26:38.504Z,100.00
2022-08-30T19:29:08.394Z,100.00
2022-08-30T19:31:37.427Z,100.00
2022-08-30T19:34:05.920Z,100.00
2022-08-30T19:36:32.638Z,100.00
2022-08-30T19:38:59.338Z,100.00
2022-08-30T19:41:26.162Z,100.00
2022-08-30T19:43:52.970Z,100.00
2022-08-30T19:46:19.879Z,100.00
2022-08-30T19:48:46.509Z,100.00
2022-08-30T19:51:15.055Z,100.00
2022-08-30T19:53:42.380Z,100.00
2022-08-30T19:56:09.047Z,100.00
2022-08-30T19:58:36.040Z,100.00
2022-08-30T20:01:11.608Z,100.00
2022-08-30T20:03:39.870Z,100.00
2022-08-30T20:06:07.414Z,100.00
2022-08-30T20:08:34.264Z,100.00
2022-08-30T20:11:04.536Z,100.00
2022-08-30T20:13:34.329Z,100.00
2022-08-30T20:16:01.619Z,100.00
2022-08-30T20:18:29.049Z,100.00
2022-08-30T20:20:56.346Z,100.00
2022-08-30T20:23:25.262Z,100.00
2022-08-30T20:25:54.526Z,100.00
2022-08-30T20:28:23.378Z,100.00
2022-08-30T20:30:50.666Z,100.00
2022-08-30T20:33:18.542Z,100.00
2022-08-30T20:35:49.035Z,100.00
2022-08-30T20:38:23.815Z,100.00
2022-08-30T20:40:58.544Z,100.00
2022-08-30T20:43:28.134Z,100.00
2022-08-30T20:45:55.527Z,100.00
2022-08-30T20:48:23.171Z,100.00
2022-08-30T20:50:50.019Z,100.00
2022-08-30T20:53:16.701Z,100.00
2022-08-30T20:55:45.529Z,100.00
2022-08-30T20:58:12.860Z,100.00
2022-08-30T21:00:39.765Z,100.00
2022-08-30T21:03:08.348Z,100.00
2022-08-30T21:05:54.163Z,100.00
2022-08-30T21:08:20.839Z,100.00
2022-08-30T21:10:50.667Z,100.00
2022-08-30T21:13:17.337Z,100.00
2022-08-30T21:15:46.185Z,100.00
2022-08-30T21:18:16.415Z,100.00
2022-08-30T21:20:44.270Z,100.00
2022-08-30T21:23:10.967Z,100.00
2022-08-30T21:25:44.006Z,100.00
2022-08-30T21:28:11.014Z,100.00
2022-08-30T21:30:37.785Z,100.00
2022-08-30T21:33:06.120Z,100.00
2022-08-30T21:36:11.222Z,100.00
2022-08-30T21:38:39.421Z,100.00
2022-08-30T21:41:06.199Z,100.00
2022-08-30T21:43:32.836Z,100.00
2022-08-30T21:46:05.185Z,100.00
2022-08-30T21:48:32.016Z,100.00
2022-08-30T21:51:09.007Z,100.00
2022-08-30T21:53:36.098Z,100.00
2022-08-30T21:56:21.911Z,100.00
2022-08-30T21:58:49.564Z,100.00
2022-08-30T22:01:19.837Z,100.00
2022-08-30T22:03:48.781Z,100.00
2022-08-30T22:06:16.144Z,100.00
2022-08-30T22:08:44.936Z,100.00
2022-08-30T22:11:14.552Z,100.00
2022-08-30T22:13:43.411Z,100.00
2022-08-30T22:16:11.508Z,100.00
2022-08-30T22:18:42.414Z,100.00
2022-08-30T22:21:10.838Z,100.00
2022-08-30T22:23:40.978Z,100.00
2022-08-30T22:26:09.670Z,100.00
2022-08-30T22:28:36.781Z,100.00
2022-08-30T22:31:09.080Z,100.00
2022-08-30T22:33:36.661Z,100.00
2022-08-30T22:36:37.993Z,100.00
2022-08-30T22:39:07.329Z,100.00
2022-08-30T22:41:34.498Z,100.00
2022-08-30T22:44:02.468Z,100.00
2022-08-30T22:46:29.582Z,100.00
2022-08-30T22:49:02.806Z,100.00
2022-08-30T22:51:29.459Z,100.00
2022-08-30T22:53:56.199Z,100.00
2022-08-30T22:56:25.005Z,100.00
2022-08-30T22:58:52.221Z,100.00
2022-08-30T23:01:29.141Z,100.00
2022-08-30T23:03:56.899Z,100.00
2022-08-30T23:06:26.135Z,100.00
2022-08-30T23:08:53.105Z,100.00
2022-08-30T23:11:20.837Z,100.00
2022-08-30T23:13:47.952Z,100.00
2022-08-30T23:16:16.028Z,100.00
2022-08-30T23:18:44.573Z,100.00
2022-08-30T23:21:14.098Z,100.00
2022-08-30T23:23:59.982Z,100.00
2022-08-30T23:26:45.286Z,100.00
2022-08-30T23:29:31.071Z,100.00
2022-08-30T23:32:16.862Z,100.00
2022-08-30T23:35:02.234Z,100.00
2022-08-30T23:37:47.677Z,100.00
2022-08-30T23:40:37.773Z,100.00
2022-08-30T23:43:22.986Z,100.00
2022-08-30T23:46:08.577Z,100.00
2022-08-30T23:48:53.947Z,100.00
2022-08-30T23:51:39.428Z,100.00
2022-08-30T23:54:27.903Z,100.00
2022-08-30T23:57:13.214Z,100.00
2022-08-30T23:59:58.549Z,100.00
